createdAt,value
2023-01-19T00:00:10.863Z,0.78
2023-01-19T00:02:14.705Z,0.81
2023-01-19T00:04:17.983Z,0.83
2023-01-19T00:06:21.348Z,0.86
2023-01-19T00:08:24.729Z,0.87
2023-01-19T00:10:28.020Z,0.89
2023-01-19T00:12:32.716Z,0.92
2023-01-19T00:14:36.112Z,0.92
2023-01-19T00:16:39.285Z,0.93
2023-01-19T00:18:42.498Z,0.94
2023-01-19T00:20:46.955Z,0.95
2023-01-19T00:22:51.015Z,0.96
2023-01-19T00:24:54.311Z,0.97
2023-01-19T00:26:58.172Z,0.98
2023-01-19T00:29:03.060Z,0.99
2023-01-19T00:31:06.507Z,1.01
2023-01-19T00:33:10.183Z,1.05
2023-01-19T00:35:13.405Z,1.05
2023-01-19T00:37:17.630Z,1.07
2023-01-19T00:39:20.879Z,1.08
2023-01-19T00:41:44.212Z,1.10
2023-01-19T00:43:47.529Z,1.11
2023-01-19T00:45:52.720Z,1.11
2023-01-19T00:47:57.326Z,1.13
2023-01-19T00:50:00.651Z,1.14
2023-01-19T00:52:03.913Z,1.16
2023-01-19T00:54:10.445Z,1.16
2023-01-19T00:56:13.712Z,1.18
2023-01-19T00:58:16.948Z,1.18
2023-01-19T01:00:21.591Z,1.20
2023-01-19T01:02:26.561Z,1.20
2023-01-19T01:04:30.044Z,1.20
2023-01-19T01:06:33.335Z,1.22
2023-01-19T01:08:36.578Z,1.23
2023-01-19T01:10:39.829Z,1.23
2023-01-19T01:12:57.333Z,1.25
2023-01-19T01:15:09.380Z,1.24
2023-01-19T01:17:14.318Z,1.26
2023-01-19T01:19:19.439Z,1.26
2023-01-19T01:21:23.738Z,1.26
2023-01-19T01:23:26.936Z,1.27
2023-01-19T01:25:31.235Z,1.28
2023-01-19T01:27:34.468Z,1.28
2023-01-19T01:29:37.732Z,1.29
2023-01-19T01:31:41.117Z,1.31
2023-01-19T01:33:44.377Z,1.31
2023-01-19T01:35:49.951Z,1.32
2023-01-19T01:37:53.164Z,1.33
2023-01-19T01:39:56.521Z,1.34
2023-01-19T01:41:59.766Z,1.34
2023-01-19T01:44:06.307Z,1.35
2023-01-19T01:46:09.757Z,1.36
2023-01-19T01:48:17.378Z,1.36
2023-01-19T01:50:23.718Z,1.37
2023-01-19T01:52:30.855Z,1.38
2023-01-19T01:54:34.969Z,1.37
2023-01-19T01:56:42.732Z,1.38
2023-01-19T01:58:46.546Z,1.38
2023-01-19T02:01:07.443Z,1.37
2023-01-19T02:03:10.851Z,1.38
2023-01-19T02:05:18.418Z,1.38
2023-01-19T02:07:45.140Z,1.38
2023-01-19T02:10:07.234Z,1.39
2023-01-19T02:12:27.847Z,1.40
2023-01-19T02:14:31.108Z,1.40
2023-01-19T02:16:34.968Z,1.42
2023-01-19T02:18:38.977Z,1.42
2023-01-19T02:20:46.491Z,1.43
2023-01-19T02:22:50.835Z,1.43
2023-01-19T02:24:55.804Z,1.44
2023-01-19T02:26:59.997Z,1.45
2023-01-19T02:29:05.370Z,1.44
2023-01-19T02:31:08.598Z,1.47
2023-01-19T02:33:11.911Z,1.46
2023-01-19T02:35:15.348Z,1.46
2023-01-19T02:37:20.069Z,1.46
2023-01-19T02:39:28.423Z,1.46
2023-01-19T02:41:39.962Z,1.46
2023-01-19T02:43:44.032Z,1.47
2023-01-19T02:45:48.337Z,1.47
2023-01-19T02:47:52.973Z,1.48
2023-01-19T02:49:57.259Z,1.48
2023-01-19T02:52:01.464Z,1.49
2023-01-19T02:54:20.227Z,1.49
2023-01-19T02:56:49.173Z,1.50
2023-01-19T02:59:02.506Z,1.50
2023-01-19T03:01:14.726Z,1.51
2023-01-19T03:03:30.814Z,1.51
2023-01-19T03:05:46.060Z,1.53
2023-01-19T03:07:55.117Z,1.54
2023-01-19T03:10:04.508Z,1.55
2023-01-19T03:12:16.071Z,1.54
2023-01-19T03:14:22.967Z,1.56
2023-01-19T03:16:31.862Z,1.56
2023-01-19T03:18:38.264Z,1.56
2023-01-19T03:20:43.158Z,1.56
2023-01-19T03:22:50.322Z,1.56
2023-01-19T03:24:55.632Z,1.57
2023-01-19T03:27:03.807Z,1.56
2023-01-19T03:29:11.610Z,1.56
2023-01-19T03:31:18.745Z,1.56
2023-01-19T03:33:27.506Z,1.56
2023-01-19T03:35:35.297Z,1.56
2023-01-19T03:37:42.253Z,1.56
2023-01-19T03:39:45.612Z,1.57
2023-01-19T03:41:51.324Z,1.57
2023-01-19T03:43:57.742Z,1.58
2023-01-19T03:46:04.272Z,1.58
2023-01-19T03:48:08.631Z,1.57
2023-01-19T03:50:19.744Z,1.58
2023-01-19T03:52:29.690Z,1.60
2023-01-19T03:54:33.383Z,1.60
2023-01-19T03:56:36.618Z,1.60
2023-01-19T03:58:39.794Z,1.61
2023-01-19T04:00:42.995Z,1.62
2023-01-19T04:02:47.548Z,1.63
2023-01-19T04:04:51.216Z,1.63
2023-01-19T04:06:54.481Z,1.63
2023-01-19T04:08:57.642Z,1.63
2023-01-19T04:11:00.809Z,1.63
2023-01-19T04:13:04.691Z,1.63
2023-01-19T04:15:08.904Z,1.64
2023-01-19T04:17:12.150Z,1.64
2023-01-19T04:19:16.704Z,1.65
2023-01-19T04:21:21.412Z,1.66
2023-01-19T04:23:25.142Z,1.66
2023-01-19T04:25:28.431Z,1.67
2023-01-19T04:27:31.627Z,1.67
2023-01-19T04:29:34.804Z,1.66
2023-01-19T04:31:38.053Z,1.67
2023-01-19T04:33:41.344Z,1.66
2023-01-19T04:35:46.340Z,1.65
2023-01-19T04:37:49.660Z,1.65
2023-01-19T04:39:52.867Z,1.65
2023-01-19T04:41:57.466Z,1.65
2023-01-19T04:44:01.961Z,1.67
2023-01-19T04:46:05.540Z,1.67
2023-01-19T04:48:08.879Z,1.67
2023-01-19T04:50:13.172Z,1.69
2023-01-19T04:52:17.750Z,1.70
2023-01-19T04:54:21.032Z,1.70
2023-01-19T04:56:24.541Z,1.70
2023-01-19T04:58:27.886Z,1.70
2023-01-19T05:00:31.122Z,1.70
2023-01-19T05:02:34.527Z,1.72
2023-01-19T05:04:37.711Z,1.69
2023-01-19T05:06:40.974Z,1.69
2023-01-19T05:08:45.668Z,1.69
2023-01-19T05:10:49.619Z,1.70
2023-01-19T05:12:52.830Z,1.70
2023-01-19T05:14:56.203Z,1.72
2023-01-19T05:17:00.555Z,1.72
2023-01-19T05:19:03.798Z,1.73
2023-01-19T05:21:07.920Z,1.72
2023-01-19T05:23:11.329Z,1.72
2023-01-19T05:25:16.046Z,1.72
2023-01-19T05:27:19.224Z,1.72
2023-01-19T05:29:22.501Z,1.73
2023-01-19T05:31:25.861Z,1.72
2023-01-19T05:33:29.189Z,1.73
2023-01-19T05:35:36.124Z,1.72
2023-01-19T05:37:39.732Z,1.73
2023-01-19T05:39:42.921Z,1.74
2023-01-19T05:41:47.819Z,1.75
2023-01-19T05:43:50.996Z,1.75
2023-01-19T05:45:54.764Z,1.74
2023-01-19T05:47:58.287Z,1.75
2023-01-19T05:50:01.639Z,1.76
2023-01-19T05:52:05.132Z,1.75
2023-01-19T05:54:10.088Z,1.76
2023-01-19T05:56:13.250Z,1.76
2023-01-19T05:58:17.837Z,1.76
2023-01-19T06:00:21.792Z,1.77
2023-01-19T06:02:28.690Z,1.76
2023-01-19T06:04:32.281Z,1.74
2023-01-19T06:06:35.481Z,1.73
2023-01-19T06:08:38.904Z,1.73
2023-01-19T06:10:42.083Z,1.73
2023-01-19T06:12:46.071Z,1.74
2023-01-19T06:14:50.958Z,1.73
2023-01-19T06:16:54.281Z,1.70
2023-01-19T06:18:57.509Z,1.69
2023-01-19T06:21:03.659Z,1.68
2023-01-19T06:23:06.913Z,1.66
2023-01-19T06:25:11.930Z,1.65
2023-01-19T06:27:15.470Z,1.65
2023-01-19T06:29:18.986Z,1.64
2023-01-19T06:31:23.698Z,1.64
2023-01-19T06:33:27.943Z,1.64
2023-01-19T06:35:31.136Z,1.62
2023-01-19T06:37:34.420Z,1.62
2023-01-19T06:39:38.022Z,1.62
2023-01-19T06:41:41.691Z,1.59
2023-01-19T06:43:44.981Z,1.60
2023-01-19T06:45:48.372Z,1.59
2023-01-19T06:47:53.217Z,1.59
2023-01-19T06:49:57.685Z,1.58
2023-01-19T06:52:01.215Z,1.58
2023-01-19T06:54:04.581Z,1.59
2023-01-19T06:56:09.423Z,1.59
2023-01-19T06:58:13.624Z,1.58
2023-01-19T07:00:17.786Z,1.57
2023-01-19T07:02:26.104Z,1.57
2023-01-19T07:04:33.929Z,1.56
2023-01-19T07:06:37.374Z,1.57
2023-01-19T07:08:41.083Z,1.57
2023-01-19T07:11:26.404Z,1.56
2023-01-19T07:13:07.499Z,1.57
2023-01-19T07:15:11.786Z,1.57
2023-01-19T07:17:15.018Z,1.56
2023-01-19T07:19:18.521Z,1.56
2023-01-19T07:21:23.542Z,1.56
2023-01-19T07:23:30.197Z,1.56
2023-01-19T07:25:33.429Z,1.56
2023-01-19T07:27:36.807Z,1.56
2023-01-19T07:29:40.132Z,1.57
2023-01-19T07:31:43.587Z,1.57
2023-01-19T07:33:47.591Z,1.58
2023-01-19T07:35:52.027Z,1.57
2023-01-19T07:37:56.710Z,1.58
2023-01-19T07:40:00.332Z,1.58
2023-01-19T07:42:03.582Z,1.59
2023-01-19T07:44:08.717Z,1.59
2023-01-19T07:46:11.958Z,1.59
2023-01-19T07:48:15.177Z,1.60
2023-01-19T07:50:21.432Z,1.59
2023-01-19T07:52:25.102Z,1.60
2023-01-19T07:54:29.780Z,1.61
2023-01-19T07:56:33.930Z,1.61
2023-01-19T07:58:37.478Z,1.63
2023-01-19T08:00:40.795Z,1.65
2023-01-19T08:02:44.107Z,1.67
2023-01-19T08:04:49.172Z,1.70
2023-01-19T08:06:52.511Z,1.73
2023-01-19T08:08:55.748Z,1.75
2023-01-19T08:11:00.948Z,1.77
2023-01-19T08:13:04.293Z,1.79
2023-01-19T08:15:08.839Z,1.80
2023-01-19T08:17:13.926Z,1.81
2023-01-19T08:19:19.294Z,1.82
2023-01-19T08:21:22.617Z,1.83
2023-01-19T08:23:25.838Z,1.83
2023-01-19T08:25:33.880Z,1.83
2023-01-19T08:27:38.525Z,1.84
2023-01-19T08:29:41.994Z,1.84
2023-01-19T08:31:45.323Z,1.88
2023-01-19T08:33:48.586Z,1.90
2023-01-19T08:35:53.015Z,1.95
2023-01-19T08:37:56.255Z,1.99
2023-01-19T08:39:59.461Z,2.06
2023-01-19T08:42:02.770Z,2.08
2023-01-19T08:44:07.441Z,2.13
2023-01-19T08:46:10.846Z,2.16
2023-01-19T08:48:14.645Z,2.19
2023-01-19T08:50:18.575Z,2.21
2023-01-19T08:52:21.728Z,2.25
2023-01-19T08:54:24.985Z,2.28
2023-01-19T08:56:28.480Z,2.32
2023-01-19T08:58:31.687Z,2.32
2023-01-19T09:00:38.881Z,2.33
2023-01-19T09:02:42.104Z,2.32
2023-01-19T09:04:45.336Z,2.31
2023-01-19T09:06:48.779Z,2.30
2023-01-19T09:08:52.102Z,2.29
2023-01-19T09:10:55.479Z,2.28
2023-01-19T09:12:58.798Z,2.27
2023-01-19T09:15:02.015Z,2.29
2023-01-19T09:17:07.543Z,2.27
2023-01-19T09:19:10.769Z,2.26
2023-01-19T09:21:15.153Z,2.27
2023-01-19T09:23:21.217Z,2.26
2023-01-19T09:25:24.514Z,2.25
2023-01-19T09:27:27.755Z,2.24
2023-01-19T09:29:30.979Z,2.26
2023-01-19T09:31:35.560Z,2.27
2023-01-19T09:33:40.244Z,2.28
2023-01-19T09:35:44.531Z,2.29
2023-01-19T09:37:48.224Z,2.29
2023-01-19T09:39:51.561Z,2.32
2023-01-19T09:42:05.977Z,2.34
2023-01-19T09:44:19.407Z,2.35
2023-01-19T09:46:28.594Z,2.39
2023-01-19T09:48:52.542Z,2.42
2023-01-19T09:50:59.444Z,2.46
2023-01-19T09:53:13.851Z,2.50
2023-01-19T09:55:22.179Z,2.54
2023-01-19T09:57:27.253Z,2.56
2023-01-19T09:59:32.234Z,2.58
2023-01-19T10:01:48.002Z,2.60
2023-01-19T10:04:03.900Z,2.61
2023-01-19T10:06:12.940Z,2.60
2023-01-19T10:08:24.812Z,2.61
2023-01-19T10:10:29.727Z,2.63
2023-01-19T10:12:42.790Z,2.64
2023-01-19T10:14:54.766Z,2.66
2023-01-19T10:17:05.584Z,2.68
2023-01-19T10:19:23.757Z,2.72
2023-01-19T10:21:31.581Z,2.79
2023-01-19T10:23:42.791Z,2.84
2023-01-19T10:25:47.820Z,2.87
2023-01-19T10:27:51.327Z,2.90
2023-01-19T10:29:55.130Z,2.95
2023-01-19T10:32:08.260Z,3.01
2023-01-19T10:34:21.563Z,3.05
2023-01-19T10:36:31.461Z,3.06
2023-01-19T10:38:37.656Z,3.06
2023-01-19T10:40:49.410Z,3.04
2023-01-19T10:42:52.713Z,3.02
2023-01-19T10:44:56.108Z,3.03
2023-01-19T10:47:01.299Z,3.04
2023-01-19T10:49:04.949Z,3.03
2023-01-19T10:51:09.934Z,3.03
2023-01-19T10:53:22.879Z,3.02
2023-01-19T10:55:29.491Z,3.00
2023-01-19T10:57:36.975Z,2.98
2023-01-19T10:59:50.998Z,2.94
2023-01-19T11:02:15.163Z,2.90
2023-01-19T11:04:23.884Z,2.88
2023-01-19T11:06:29.668Z,2.86
2023-01-19T11:08:34.297Z,2.88
2023-01-19T11:10:39.107Z,2.87
2023-01-19T11:12:43.733Z,2.89
2023-01-19T11:14:48.230Z,2.89
2023-01-19T11:16:54.906Z,2.91
2023-01-19T11:19:02.072Z,2.93
2023-01-19T11:21:08.168Z,2.96
2023-01-19T11:23:22.961Z,2.98
2023-01-19T11:25:32.018Z,3.00
2023-01-19T11:27:38.221Z,2.97
2023-01-19T11:29:41.573Z,2.97
2023-01-19T11:31:45.518Z,2.97
2023-01-19T11:33:54.644Z,2.97
2023-01-19T11:36:04.382Z,2.98
2023-01-19T11:38:23.274Z,2.97
2023-01-19T11:40:27.909Z,2.94
2023-01-19T11:42:36.591Z,2.92
2023-01-19T11:44:45.939Z,2.87
2023-01-19T11:46:56.948Z,2.83
2023-01-19T11:49:06.168Z,2.82
2023-01-19T11:51:15.682Z,2.81
2023-01-19T11:53:24.401Z,2.81
2023-01-19T11:55:37.647Z,2.81
2023-01-19T11:57:46.559Z,2.83
2023-01-19T11:59:52.503Z,2.86
2023-01-19T12:01:59.056Z,2.91
2023-01-19T12:04:08.136Z,2.95
2023-01-19T12:06:15.570Z,2.99
2023-01-19T12:08:24.527Z,2.99
2023-01-19T12:10:32.745Z,3.03
2023-01-19T12:12:40.483Z,3.08
2023-01-19T12:14:51.599Z,3.09
2023-01-19T12:17:00.239Z,3.09
2023-01-19T12:19:07.503Z,3.07
2023-01-19T12:21:10.828Z,3.06
2023-01-19T12:23:26.889Z,3.04
2023-01-19T12:25:45.535Z,3.05
2023-01-19T12:27:51.223Z,3.05
2023-01-19T12:29:56.011Z,3.06
2023-01-19T12:32:18.222Z,3.08
2023-01-19T12:34:41.541Z,3.09
2023-01-19T12:36:44.797Z,3.09
2023-01-19T12:38:52.383Z,3.10
2023-01-19T12:41:21.283Z,3.08
2023-01-19T12:43:24.724Z,3.09
2023-01-19T12:45:33.207Z,3.09
2023-01-19T12:47:37.733Z,3.10
2023-01-19T12:49:43.856Z,3.10
2023-01-19T12:51:47.364Z,3.10
2023-01-19T12:53:54.404Z,3.08
2023-01-19T12:56:06.187Z,3.06
2023-01-19T12:58:18.660Z,3.05
2023-01-19T13:00:34.876Z,3.05
2023-01-19T13:02:47.502Z,3.03
2023-01-19T13:05:10.754Z,3.02
2023-01-19T13:07:17.894Z,3.03
2023-01-19T13:09:30.404Z,3.03
2023-01-19T13:11:34.754Z,3.04
2023-01-19T13:13:42.323Z,3.06
2023-01-19T13:15:45.554Z,3.10
2023-01-19T13:17:52.318Z,3.13
2023-01-19T13:20:01.873Z,3.16
2023-01-19T13:22:38.482Z,3.15
2023-01-19T13:25:07.049Z,3.17
2023-01-19T13:27:14.450Z,3.19
2023-01-19T13:29:26.290Z,3.21
2023-01-19T13:31:35.731Z,3.24
2023-01-19T13:33:46.100Z,3.27
2023-01-19T13:35:56.121Z,3.30
2023-01-19T13:38:00.148Z,3.31
2023-01-19T13:40:03.662Z,3.32
2023-01-19T13:42:15.631Z,3.31
2023-01-19T13:44:25.040Z,3.31
2023-01-19T13:46:29.981Z,3.32
2023-01-19T13:48:34.143Z,3.33
2023-01-19T13:50:39.681Z,3.34
2023-01-19T13:52:45.832Z,3.36
2023-01-19T13:54:50.363Z,3.38
2023-01-19T13:56:55.075Z,3.40
2023-01-19T13:59:10.357Z,3.42
2023-01-19T14:01:26.648Z,3.44
2023-01-19T14:03:36.162Z,3.45
2023-01-19T14:05:41.213Z,3.46
2023-01-19T14:07:44.446Z,3.48
2023-01-19T14:09:47.959Z,3.51
2023-01-19T14:12:12.288Z,3.54
2023-01-19T14:14:33.297Z,3.59
2023-01-19T14:16:38.082Z,3.64
2023-01-19T14:18:41.363Z,3.65
2023-01-19T14:20:54.085Z,3.67
2023-01-19T14:22:57.361Z,3.66
2023-01-19T14:25:23.175Z,3.66
2023-01-19T14:27:26.372Z,3.65
2023-01-19T14:29:32.897Z,3.64
2023-01-19T14:31:44.346Z,3.62
2023-01-19T14:33:49.240Z,3.59
2023-01-19T14:35:52.566Z,3.56
2023-01-19T14:37:55.818Z,3.55
2023-01-19T14:40:04.677Z,3.55
2023-01-19T14:42:08.140Z,3.56
2023-01-19T14:44:12.557Z,3.59
2023-01-19T14:46:19.507Z,3.63
2023-01-19T14:48:25.806Z,3.67
2023-01-19T14:50:31.961Z,3.68
2023-01-19T14:52:39.342Z,3.67
2023-01-19T14:54:46.014Z,3.63
2023-01-19T14:56:49.499Z,3.59
2023-01-19T14:58:52.734Z,3.56
2023-01-19T15:00:56.347Z,3.53
2023-01-19T15:02:59.589Z,3.48
2023-01-19T15:05:04.419Z,3.41
2023-01-19T15:07:08.126Z,3.33
2023-01-19T15:09:13.568Z,3.26
2023-01-19T15:11:24.952Z,3.17
2023-01-19T15:13:29.019Z,3.09
2023-01-19T15:15:34.109Z,3.02
2023-01-19T15:17:37.343Z,2.95
2023-01-19T15:19:40.491Z,2.90
2023-01-19T15:21:46.897Z,2.84
2023-01-19T15:23:50.591Z,2.78
2023-01-19T15:25:54.888Z,2.73
2023-01-19T15:27:59.846Z,2.69
2023-01-19T15:30:03.060Z,2.66
2023-01-19T15:32:06.959Z,2.61
2023-01-19T15:34:13.223Z,2.57
2023-01-19T15:36:18.571Z,2.52
2023-01-19T15:38:23.813Z,2.47
2023-01-19T15:40:27.215Z,2.43
2023-01-19T15:42:30.381Z,2.38
2023-01-19T15:44:33.550Z,2.34
2023-01-19T15:46:36.695Z,2.31
2023-01-19T15:48:39.920Z,2.27
2023-01-19T15:50:44.363Z,2.24
2023-01-19T15:52:47.597Z,2.21
2023-01-19T15:54:52.181Z,2.16
2023-01-19T15:56:55.337Z,2.13
2023-01-19T15:58:59.738Z,2.11
2023-01-19T16:01:03.170Z,2.10
2023-01-19T16:03:06.437Z,2.08
2023-01-19T16:05:10.621Z,2.06
2023-01-19T16:07:14.123Z,2.05
2023-01-19T16:09:20.115Z,2.04
2023-01-19T16:11:24.717Z,2.03
2023-01-19T16:13:30.019Z,2.03
2023-01-19T16:15:35.651Z,2.01
2023-01-19T16:17:38.941Z,2.01
2023-01-19T16:19:42.137Z,1.99
2023-01-19T16:21:45.355Z,1.98
2023-01-19T16:23:48.567Z,1.98
2023-01-19T16:25:59.179Z,1.97
2023-01-19T16:28:03.769Z,1.96
2023-01-19T16:30:08.550Z,1.95
2023-01-19T16:32:12.233Z,1.95
2023-01-19T16:34:15.419Z,1.94
2023-01-19T16:36:23.569Z,1.93
2023-01-19T16:38:26.801Z,1.92
2023-01-19T16:40:30.208Z,1.90
2023-01-19T16:42:33.443Z,1.89
2023-01-19T16:44:38.089Z,1.87
2023-01-19T16:46:42.889Z,1.84
2023-01-19T16:48:46.078Z,1.83
2023-01-19T16:51:01.205Z,1.82
2023-01-19T16:53:05.181Z,1.78
2023-01-19T16:55:11.241Z,1.77
2023-01-19T16:57:14.982Z,1.75
2023-01-19T16:59:19.172Z,1.72
2023-01-19T17:01:24.656Z,1.70
2023-01-19T17:03:28.170Z,1.70
2023-01-19T17:05:31.335Z,1.68
2023-01-19T17:07:34.480Z,1.66
2023-01-19T17:09:37.758Z,1.64
